sensor_id;sensor_type;location;lat;lon;timestamp;P1;durP1;ratioP1;P2;durP2;ratioP2
25653;SDS011;13511;48.622;9.230;2023-07-28T00:01:35;4.55;;;4.25;;
25653;SDS011;13511;48.622;9.230;2023-07-28T00:04:01;4.72;;;4.07;;
25653;SDS011;13511;48.622;9.230;2023-07-28T00:06:31;5.05;;;4.38;;
25653;SDS011;13511;48.622;9.230;2023-07-28T00:08:57;6.90;;;4.70;;
25653;SDS011;13511;48.622;9.230;2023-07-28T00:11:23;4.80;;;4.40;;
25653;SDS011;13511;48.622;9.230;2023-07-28T00:13:49;4.45;;;4.22;;
25653;SDS011;13511;48.622;9.230;2023-07-28T00:16:15;7.57;;;4.53;;
25653;SDS011;13511;48.622;9.230;2023-07-28T00:18:42;5.65;;;4.38;;
25653;SDS011;13511;48.622;9.230;2023-07-28T00:21:08;5.00;;;4.50;;
25653;SDS011;13511;48.622;9.230;2023-07-28T00:23:33;5.70;;;4.65;;
25653;SDS011;13511;48.622;9.230;2023-07-28T00:25:59;6.13;;;4.45;;
25653;SDS011;13511;48.622;9.230;2023-07-28T00:28:25;5.03;;;4.60;;
25653;SDS011;13511;48.622;9.230;2023-07-28T00:30:51;5.10;;;4.50;;
25653;SDS011;13511;48.622;9.230;2023-07-28T00:33:17;4.90;;;4.50;;
25653;SDS011;13511;48.622;9.230;2023-07-28T00:35:44;5.18;;;4.78;;
25653;SDS011;13511;48.622;9.230;2023-07-28T00:38:10;6.88;;;6.05;;
25653;SDS011;13511;48.622;9.230;2023-07-28T00:40:36;5.47;;;4.75;;
25653;SDS011;13511;48.622;9.230;2023-07-28T00:43:02;5.10;;;4.55;;
25653;SDS011;13511;48.622;9.230;2023-07-28T00:45:28;8.68;;;5.28;;
25653;SDS011;13511;48.622;9.230;2023-07-28T00:47:55;6.18;;;4.82;;
25653;SDS011;13511;48.622;9.230;2023-07-28T00:50:25;5.35;;;4.95;;
25653;SDS011;13511;48.622;9.230;2023-07-28T00:52:51;6.50;;;5.53;;
25653;SDS011;13511;48.622;9.230;2023-07-28T00:55:18;5.32;;;4.82;;
25653;SDS011;13511;48.622;9.230;2023-07-28T00:57:44;5.07;;;4.68;;
25653;SDS011;13511;48.622;9.230;2023-07-28T01:00:10;5.18;;;4.68;;
25653;SDS011;13511;48.622;9.230;2023-07-28T01:02:36;5.13;;;4.72;;
25653;SDS011;13511;48.622;9.230;2023-07-28T01:05:03;4.70;;;4.40;;
25653;SDS011;13511;48.622;9.230;2023-07-28T01:12:59;5.22;;;4.28;;
25653;SDS011;13511;48.622;9.230;2023-07-28T01:15:25;4.07;;;3.67;;
25653;SDS011;13511;48.622;9.230;2023-07-28T01:17:51;7.82;;;4.40;;
25653;SDS011;13511;48.622;9.230;2023-07-28T01:20:17;6.50;;;4.53;;
25653;SDS011;13511;48.622;9.230;2023-07-28T01:28:13;5.03;;;4.20;;
25653;SDS011;13511;48.622;9.230;2023-07-28T01:30:41;5.03;;;4.45;;
25653;SDS011;13511;48.622;9.230;2023-07-28T01:33:07;4.93;;;4.60;;
25653;SDS011;13511;48.622;9.230;2023-07-28T01:35:34;7.43;;;5.18;;
25653;SDS011;13511;48.622;9.230;2023-07-28T01:38:00;6.70;;;5.00;;
25653;SDS011;13511;48.622;9.230;2023-07-28T01:40:26;4.75;;;4.32;;
25653;SDS011;13511;48.622;9.230;2023-07-28T01:42:52;5.05;;;4.60;;
25653;SDS011;13511;48.622;9.230;2023-07-28T01:45:18;4.50;;;4.10;;
25653;SDS011;13511;48.622;9.230;2023-07-28T01:47:44;10.43;;;4.60;;
25653;SDS011;13511;48.622;9.230;2023-07-28T01:50:10;4.25;;;3.90;;
25653;SDS011;13511;48.622;9.230;2023-07-28T01:52:36;5.55;;;4.00;;
25653;SDS011;13511;48.622;9.230;2023-07-28T01:55:02;4.88;;;4.32;;
25653;SDS011;13511;48.622;9.230;2023-07-28T01:57:30;7.97;;;4.22;;
25653;SDS011;13511;48.622;9.230;2023-07-28T01:59:56;6.10;;;4.55;;
25653;SDS011;13511;48.622;9.230;2023-07-28T02:02:22;4.75;;;3.92;;
25653;SDS011;13511;48.622;9.230;2023-07-28T02:04:48;5.00;;;4.55;;
25653;SDS011;13511;48.622;9.230;2023-07-28T02:07:14;4.97;;;4.38;;
25653;SDS011;13511;48.622;9.230;2023-07-28T02:09:40;5.03;;;4.60;;
25653;SDS011;13511;48.622;9.230;2023-07-28T02:12:06;5.93;;;4.82;;
25653;SDS011;13511;48.622;9.230;2023-07-28T02:14:32;4.85;;;4.30;;
25653;SDS011;13511;48.622;9.230;2023-07-28T02:16:58;8.07;;;4.15;;
25653;SDS011;13511;48.622;9.230;2023-07-28T02:19:24;4.43;;;4.03;;
25653;SDS011;13511;48.622;9.230;2023-07-28T02:21:50;9.02;;;4.50;;
25653;SDS011;13511;48.622;9.230;2023-07-28T02:24:16;5.05;;;4.45;;
25653;SDS011;13511;48.622;9.230;2023-07-28T02:26:42;5.78;;;4.57;;
25653;SDS011;13511;48.622;9.230;2023-07-28T02:29:08;4.10;;;3.78;;
25653;SDS011;13511;48.622;9.230;2023-07-28T02:31:34;4.75;;;4.45;;
25653;SDS011;13511;48.622;9.230;2023-07-28T02:34:00;5.05;;;4.53;;
25653;SDS011;13511;48.622;9.230;2023-07-28T02:36:26;4.57;;;4.32;;
25653;SDS011;13511;48.622;9.230;2023-07-28T02:38:52;5.35;;;4.72;;
25653;SDS011;13511;48.622;9.230;2023-07-28T02:41:18;5.00;;;4.60;;
25653;SDS011;13511;48.622;9.230;2023-07-28T02:43:44;4.35;;;4.05;;
25653;SDS011;13511;48.622;9.230;2023-07-28T02:46:10;4.57;;;3.85;;
25653;SDS011;13511;48.622;9.230;2023-07-28T02:48:36;6.70;;;3.97;;
25653;SDS011;13511;48.622;9.230;2023-07-28T02:51:02;4.35;;;4.03;;
25653;SDS011;13511;48.622;9.230;2023-07-28T02:53:28;4.47;;;4.05;;
25653;SDS011;13511;48.622;9.230;2023-07-28T02:55:54;4.93;;;4.50;;
25653;SDS011;13511;48.622;9.230;2023-07-28T02:58:22;5.68;;;4.88;;
25653;SDS011;13511;48.622;9.230;2023-07-28T03:00:48;5.60;;;4.75;;
25653;SDS011;13511;48.622;9.230;2023-07-28T03:03:15;4.68;;;4.20;;
25653;SDS011;13511;48.622;9.230;2023-07-28T03:05:41;4.65;;;4.20;;
25653;SDS011;13511;48.622;9.230;2023-07-28T03:08:07;4.60;;;4.15;;
25653;SDS011;13511;48.622;9.230;2023-07-28T03:10:33;4.47;;;3.97;;
25653;SDS011;13511;48.622;9.230;2023-07-28T03:12:59;4.30;;;4.00;;
25653;SDS011;13511;48.622;9.230;2023-07-28T03:15:25;5.10;;;4.65;;
25653;SDS011;13511;48.622;9.230;2023-07-28T03:17:51;4.47;;;4.18;;
25653;SDS011;13511;48.622;9.230;2023-07-28T03:20:19;8.95;;;4.20;;
25653;SDS011;13511;48.622;9.230;2023-07-28T03:22:45;4.47;;;4.07;;
25653;SDS011;13511;48.622;9.230;2023-07-28T03:25:12;4.40;;;4.20;;
25653;SDS011;13511;48.622;9.230;2023-07-28T03:27:38;6.68;;;4.78;;
25653;SDS011;13511;48.622;9.230;2023-07-28T03:30:04;8.82;;;4.38;;
25653;SDS011;13511;48.622;9.230;2023-07-28T03:32:32;4.47;;;4.10;;
25653;SDS011;13511;48.622;9.230;2023-07-28T03:34:58;6.20;;;4.53;;
25653;SDS011;13511;48.622;9.230;2023-07-28T03:37:24;5.65;;;5.03;;
25653;SDS011;13511;48.622;9.230;2023-07-28T03:39:50;5.22;;;4.72;;
25653;SDS011;13511;48.622;9.230;2023-07-28T03:42:16;4.53;;;4.05;;
25653;SDS011;13511;48.622;9.230;2023-07-28T03:44:42;4.43;;;4.22;;
25653;SDS011;13511;48.622;9.230;2023-07-28T03:47:08;4.57;;;3.97;;
25653;SDS011;13511;48.622;9.230;2023-07-28T03:49:34;5.25;;;4.00;;
25653;SDS011;13511;48.622;9.230;2023-07-28T03:52:00;4.32;;;4.00;;
25653;SDS011;13511;48.622;9.230;2023-07-28T03:54:26;9.57;;;4.75;;
25653;SDS011;13511;48.622;9.230;2023-07-28T03:56:52;6.25;;;4.88;;
25653;SDS011;13511;48.622;9.230;2023-07-28T03:59:18;5.00;;;4.65;;
25653;SDS011;13511;48.622;9.230;2023-07-28T04:01:44;7.28;;;4.57;;
25653;SDS011;13511;48.622;9.230;2023-07-28T04:04:10;4.65;;;4.32;;
25653;SDS011;13511;48.622;9.230;2023-07-28T04:09:06;8.80;;;7.93;;
25653;SDS011;13511;48.622;9.230;2023-07-28T04:11:33;8.82;;;7.32;;
25653;SDS011;13511;48.622;9.230;2023-07-28T04:13:59;6.90;;;6.45;;
25653;SDS011;13511;48.622;9.230;2023-07-28T04:16:25;7.05;;;6.32;;
25653;SDS011;13511;48.622;9.230;2023-07-28T04:18:51;6.47;;;5.85;;
25653;SDS011;13511;48.622;9.230;2023-07-28T04:21:17;6.32;;;5.82;;
25653;SDS011;13511;48.622;9.230;2023-07-28T04:23:43;7.05;;;6.07;;
25653;SDS011;13511;48.622;9.230;2023-07-28T04:26:09;7.88;;;6.40;;
25653;SDS011;13511;48.622;9.230;2023-07-28T04:28:35;7.00;;;6.40;;
25653;SDS011;13511;48.622;9.230;2023-07-28T04:31:01;9.48;;;6.40;;
25653;SDS011;13511;48.622;9.230;2023-07-28T04:33:27;10.02;;;6.93;;
25653;SDS011;13511;48.622;9.230;2023-07-28T04:35:53;7.10;;;6.43;;
25653;SDS011;13511;48.622;9.230;2023-07-28T04:38:19;11.13;;;6.93;;
25653;SDS011;13511;48.622;9.230;2023-07-28T04:40:45;7.05;;;6.45;;
25653;SDS011;13511;48.622;9.230;2023-07-28T04:43:11;7.68;;;6.50;;
25653;SDS011;13511;48.622;9.230;2023-07-28T04:45:37;6.43;;;5.82;;
25653;SDS011;13511;48.622;9.230;2023-07-28T04:48:03;6.80;;;6.15;;
25653;SDS011;13511;48.622;9.230;2023-07-28T04:50:29;6.72;;;6.25;;
25653;SDS011;13511;48.622;9.230;2023-07-28T04:52:55;6.47;;;5.97;;
25653;SDS011;13511;48.622;9.230;2023-07-28T04:55:21;9.52;;;6.97;;
25653;SDS011;13511;48.622;9.230;2023-07-28T04:57:47;7.65;;;6.72;;
25653;SDS011;13511;48.622;9.230;2023-07-28T05:00:13;7.13;;;6.47;;
25653;SDS011;13511;48.622;9.230;2023-07-28T05:02:39;7.22;;;6.53;;
25653;SDS011;13511;48.622;9.230;2023-07-28T05:05:05;8.07;;;6.75;;
25653;SDS011;13511;48.622;9.230;2023-07-28T05:07:31;6.78;;;6.20;;
25653;SDS011;13511;48.622;9.230;2023-07-28T05:09:57;6.53;;;6.03;;
25653;SDS011;13511;48.622;9.230;2023-07-28T05:12:23;6.88;;;6.07;;
25653;SDS011;13511;48.622;9.230;2023-07-28T05:14:49;6.25;;;5.75;;
25653;SDS011;13511;48.622;9.230;2023-07-28T05:17:15;7.30;;;6.28;;
25653;SDS011;13511;48.622;9.230;2023-07-28T05:19:41;6.70;;;6.20;;
25653;SDS011;13511;48.622;9.230;2023-07-28T05:22:07;7.65;;;6.35;;
25653;SDS011;13511;48.622;9.230;2023-07-28T05:24:33;6.85;;;6.07;;
25653;SDS011;13511;48.622;9.230;2023-07-28T05:26:59;6.57;;;5.93;;
25653;SDS011;13511;48.622;9.230;2023-07-28T05:29:25;7.75;;;5.80;;
25653;SDS011;13511;48.622;9.230;2023-07-28T05:31:51;6.10;;;5.60;;
25653;SDS011;13511;48.622;9.230;2023-07-28T05:34:17;9.27;;;5.60;;
25653;SDS011;13511;48.622;9.230;2023-07-28T05:36:43;8.48;;;5.85;;
25653;SDS011;13511;48.622;9.230;2023-07-28T05:39:09;5.57;;;5.18;;
25653;SDS011;13511;48.622;9.230;2023-07-28T05:41:36;6.13;;;5.72;;
25653;SDS011;13511;48.622;9.230;2023-07-28T05:44:02;9.35;;;5.45;;
25653;SDS011;13511;48.622;9.230;2023-07-28T05:46:28;5.70;;;5.20;;
25653;SDS011;13511;48.622;9.230;2023-07-28T05:48:55;5.95;;;5.47;;
25653;SDS011;13511;48.622;9.230;2023-07-28T05:51:21;5.72;;;5.32;;
25653;SDS011;13511;48.622;9.230;2023-07-28T05:53:47;6.22;;;5.80;;
25653;SDS011;13511;48.622;9.230;2023-07-28T05:56:13;6.93;;;5.47;;
25653;SDS011;13511;48.622;9.230;2023-07-28T05:58:39;6.03;;;5.50;;
25653;SDS011;13511;48.622;9.230;2023-07-28T06:01:05;7.53;;;6.60;;
25653;SDS011;13511;48.622;9.230;2023-07-28T06:03:31;7.40;;;6.00;;
25653;SDS011;13511;48.622;9.230;2023-07-28T06:05:57;6.57;;;5.97;;
25653;SDS011;13511;48.622;9.230;2023-07-28T06:08:23;7.53;;;6.70;;
25653;SDS011;13511;48.622;9.230;2023-07-28T06:10:49;6.68;;;6.07;;
25653;SDS011;13511;48.622;9.230;2023-07-28T06:13:15;7.57;;;6.55;;
25653;SDS011;13511;48.622;9.230;2023-07-28T06:15:41;6.50;;;6.00;;
25653;SDS011;13511;48.622;9.230;2023-07-28T06:18:07;7.43;;;6.28;;
25653;SDS011;13511;48.622;9.230;2023-07-28T06:20:34;7.20;;;5.93;;
25653;SDS011;13511;48.622;9.230;2023-07-28T06:23:00;6.80;;;6.13;;
25653;SDS011;13511;48.622;9.230;2023-07-28T06:25:26;10.57;;;6.93;;
25653;SDS011;13511;48.622;9.230;2023-07-28T06:27:52;7.43;;;5.63;;
25653;SDS011;13511;48.622;9.230;2023-07-28T06:30:18;7.40;;;6.70;;
25653;SDS011;13511;48.622;9.230;2023-07-28T06:32:44;6.32;;;5.72;;
25653;SDS011;13511;48.622;9.230;2023-07-28T06:35:10;7.57;;;6.43;;
25653;SDS011;13511;48.622;9.230;2023-07-28T06:37:37;6.35;;;5.85;;
25653;SDS011;13511;48.622;9.230;2023-07-28T06:40:06;6.15;;;5.70;;
25653;SDS011;13511;48.622;9.230;2023-07-28T06:42:35;7.80;;;5.75;;
25653;SDS011;13511;48.622;9.230;2023-07-28T06:45:02;6.22;;;5.72;;
25653;SDS011;13511;48.622;9.230;2023-07-28T06:47:28;6.22;;;5.72;;
25653;SDS011;13511;48.622;9.230;2023-07-28T06:49:54;6.45;;;5.95;;
25653;SDS011;13511;48.622;9.230;2023-07-28T06:52:20;6.97;;;6.20;;
25653;SDS011;13511;48.622;9.230;2023-07-28T06:54:46;7.50;;;6.13;;
25653;SDS011;13511;48.622;9.230;2023-07-28T06:57:14;6.32;;;5.93;;
25653;SDS011;13511;48.622;9.230;2023-07-28T06:59:40;6.50;;;5.88;;
25653;SDS011;13511;48.622;9.230;2023-07-28T07:02:06;7.30;;;6.45;;
25653;SDS011;13511;48.622;9.230;2023-07-28T07:04:32;6.43;;;5.95;;
25653;SDS011;13511;48.622;9.230;2023-07-28T07:06:58;8.93;;;5.90;;
25653;SDS011;13511;48.622;9.230;2023-07-28T07:09:24;7.50;;;6.45;;
25653;SDS011;13511;48.622;9.230;2023-07-28T07:11:50;6.65;;;6.20;;
25653;SDS011;13511;48.622;9.230;2023-07-28T07:14:16;6.75;;;6.30;;
25653;SDS011;13511;48.622;9.230;2023-07-28T07:16:42;6.43;;;5.82;;
25653;SDS011;13511;48.622;9.230;2023-07-28T07:19:08;6.13;;;5.63;;
25653;SDS011;13511;48.622;9.230;2023-07-28T07:21:34;6.93;;;6.03;;
25653;SDS011;13511;48.622;9.230;2023-07-28T07:24:01;6.57;;;5.97;;
25653;SDS011;13511;48.622;9.230;2023-07-28T07:26:28;6.30;;;5.80;;
25653;SDS011;13511;48.622;9.230;2023-07-28T07:28:54;7.22;;;6.53;;
25653;SDS011;13511;48.622;9.230;2023-07-28T07:31:20;5.95;;;5.47;;
25653;SDS011;13511;48.622;9.230;2023-07-28T07:33:46;6.57;;;6.00;;
25653;SDS011;13511;48.622;9.230;2023-07-28T07:36:12;6.85;;;6.20;;
25653;SDS011;13511;48.622;9.230;2023-07-28T07:38:39;7.10;;;6.10;;
25653;SDS011;13511;48.622;9.230;2023-07-28T07:41:06;6.07;;;5.60;;
25653;SDS011;13511;48.622;9.230;2023-07-28T07:43:32;5.70;;;5.30;;
25653;SDS011;13511;48.622;9.230;2023-07-28T07:45:59;6.05;;;5.47;;
25653;SDS011;13511;48.622;9.230;2023-07-28T07:48:24;6.03;;;5.47;;
25653;SDS011;13511;48.622;9.230;2023-07-28T07:50:51;5.63;;;5.22;;
25653;SDS011;13511;48.622;9.230;2023-07-28T07:53:17;7.35;;;4.88;;
25653;SDS011;13511;48.622;9.230;2023-07-28T07:55:43;6.35;;;5.93;;
25653;SDS011;13511;48.622;9.230;2023-07-28T07:58:09;5.95;;;5.55;;
25653;SDS011;13511;48.622;9.230;2023-07-28T08:00:36;6.10;;;5.43;;
25653;SDS011;13511;48.622;9.230;2023-07-28T08:03:03;5.78;;;5.30;;
25653;SDS011;13511;48.622;9.230;2023-07-28T08:05:30;6.43;;;5.25;;
25653;SDS011;13511;48.622;9.230;2023-07-28T08:07:56;8.93;;;6.25;;
25653;SDS011;13511;48.622;9.230;2023-07-28T08:10:22;5.97;;;5.28;;
25653;SDS011;13511;48.622;9.230;2023-07-28T08:12:48;5.93;;;5.40;;
25653;SDS011;13511;48.622;9.230;2023-07-28T08:15:14;5.80;;;5.40;;
25653;SDS011;13511;48.622;9.230;2023-07-28T08:17:40;5.45;;;5.15;;
25653;SDS011;13511;48.622;9.230;2023-07-28T08:20:07;8.20;;;5.07;;
25653;SDS011;13511;48.622;9.230;2023-07-28T08:22:33;5.32;;;4.88;;
25653;SDS011;13511;48.622;9.230;2023-07-28T08:24:59;11.25;;;4.43;;
25653;SDS011;13511;48.622;9.230;2023-07-28T08:27:25;5.30;;;4.38;;
25653;SDS011;13511;48.622;9.230;2023-07-28T08:29:51;5.15;;;4.07;;
25653;SDS011;13511;48.622;9.230;2023-07-28T08:32:17;5.70;;;4.68;;
25653;SDS011;13511;48.622;9.230;2023-07-28T08:34:43;6.05;;;5.20;;
25653;SDS011;13511;48.622;9.230;2023-07-28T08:37:09;5.65;;;4.88;;
25653;SDS011;13511;48.622;9.230;2023-07-28T08:39:35;6.15;;;5.65;;
25653;SDS011;13511;48.622;9.230;2023-07-28T08:42:01;4.82;;;4.45;;
25653;SDS011;13511;48.622;9.230;2023-07-28T08:44:34;4.93;;;4.47;;
25653;SDS011;13511;48.622;9.230;2023-07-28T08:47:01;4.93;;;4.47;;
25653;SDS011;13511;48.622;9.230;2023-07-28T08:49:28;4.57;;;4.00;;
25653;SDS011;13511;48.622;9.230;2023-07-28T08:51:57;4.55;;;4.15;;
25653;SDS011;13511;48.622;9.230;2023-07-28T08:54:25;4.45;;;4.15;;
25653;SDS011;13511;48.622;9.230;2023-07-28T08:56:51;9.50;;;5.05;;
25653;SDS011;13511;48.622;9.230;2023-07-28T08:59:23;4.15;;;3.85;;
25653;SDS011;13511;48.622;9.230;2023-07-28T09:01:50;3.92;;;3.72;;
25653;SDS011;13511;48.622;9.230;2023-07-28T09:04:16;3.90;;;3.60;;
25653;SDS011;13511;48.622;9.230;2023-07-28T09:06:46;3.83;;;3.63;;
25653;SDS011;13511;48.622;9.230;2023-07-28T09:09:13;3.97;;;3.58;;
25653;SDS011;13511;48.622;9.230;2023-07-28T09:11:46;5.93;;;3.75;;
25653;SDS011;13511;48.622;9.230;2023-07-28T09:14:14;3.70;;;3.50;;
25653;SDS011;13511;48.622;9.230;2023-07-28T09:16:44;4.90;;;3.78;;
25653;SDS011;13511;48.622;9.230;2023-07-28T09:19:10;5.57;;;3.95;;
25653;SDS011;13511;48.622;9.230;2023-07-28T09:21:41;4.07;;;3.88;;
25653;SDS011;13511;48.622;9.230;2023-07-28T09:24:11;4.28;;;3.97;;
25653;SDS011;13511;48.622;9.230;2023-07-28T09:26:42;4.30;;;3.97;;
25653;SDS011;13511;48.622;9.230;2023-07-28T09:29:14;3.83;;;3.63;;
25653;SDS011;13511;48.622;9.230;2023-07-28T09:31:41;3.90;;;3.70;;
25653;SDS011;13511;48.622;9.230;2023-07-28T09:34:07;4.10;;;3.80;;
25653;SDS011;13511;48.622;9.230;2023-07-28T09:36:33;3.95;;;3.70;;
25653;SDS011;13511;48.622;9.230;2023-07-28T09:38:59;3.80;;;3.60;;
25653;SDS011;13511;48.622;9.230;2023-07-28T09:41:28;4.00;;;3.72;;
25653;SDS011;13511;48.622;9.230;2023-07-28T09:43:54;4.15;;;3.67;;
25653;SDS011;13511;48.622;9.230;2023-07-28T09:46:22;4.22;;;3.83;;
25653;SDS011;13511;48.622;9.230;2023-07-28T09:48:48;3.97;;;3.70;;
25653;SDS011;13511;48.622;9.230;2023-07-28T09:51:18;4.05;;;3.78;;
25653;SDS011;13511;48.622;9.230;2023-07-28T09:53:53;3.67;;;3.38;;
25653;SDS011;13511;48.622;9.230;2023-07-28T09:56:20;4.00;;;3.80;;
25653;SDS011;13511;48.622;9.230;2023-07-28T09:58:51;3.85;;;3.63;;
25653;SDS011;13511;48.622;9.230;2023-07-28T10:01:18;4.10;;;3.80;;
25653;SDS011;13511;48.622;9.230;2023-07-28T10:03:46;4.22;;;4.00;;
25653;SDS011;13511;48.622;9.230;2023-07-28T10:06:13;4.72;;;3.65;;
25653;SDS011;13511;48.622;9.230;2023-07-28T10:08:39;4.00;;;3.65;;
25653;SDS011;13511;48.622;9.230;2023-07-28T10:11:06;4.47;;;3.90;;
25653;SDS011;13511;48.622;9.230;2023-07-28T10:13:41;3.80;;;3.60;;
25653;SDS011;13511;48.622;9.230;2023-07-28T10:16:08;4.20;;;3.85;;
25653;SDS011;13511;48.622;9.230;2023-07-28T10:18:34;4.30;;;3.90;;
25653;SDS011;13511;48.622;9.230;2023-07-28T10:21:08;4.20;;;3.97;;
25653;SDS011;13511;48.622;9.230;2023-07-28T10:23:38;4.07;;;3.80;;
25653;SDS011;13511;48.622;9.230;2023-07-28T10:26:04;4.00;;;3.78;;
25653;SDS011;13511;48.622;9.230;2023-07-28T10:28:35;4.97;;;3.90;;
25653;SDS011;13511;48.622;9.230;2023-07-28T10:31:06;3.92;;;3.60;;
25653;SDS011;13511;48.622;9.230;2023-07-28T10:33:36;3.88;;;3.67;;
25653;SDS011;13511;48.622;9.230;2023-07-28T10:36:18;3.92;;;3.70;;
25653;SDS011;13511;48.622;9.230;2023-07-28T10:38:44;3.65;;;3.45;;
25653;SDS011;13511;48.622;9.230;2023-07-28T10:41:14;4.47;;;4.03;;
25653;SDS011;13511;48.622;9.230;2023-07-28T10:43:41;4.63;;;4.22;;
25653;SDS011;13511;48.622;9.230;2023-07-28T10:46:07;4.03;;;3.80;;
25653;SDS011;13511;48.622;9.230;2023-07-28T10:48:34;3.80;;;3.50;;
25653;SDS011;13511;48.622;9.230;2023-07-28T10:51:01;5.05;;;3.55;;
25653;SDS011;13511;48.622;9.230;2023-07-28T10:53:27;4.13;;;3.80;;
25653;SDS011;13511;48.622;9.230;2023-07-28T10:55:53;3.88;;;3.58;;
25653;SDS011;13511;48.622;9.230;2023-07-28T10:58:19;4.18;;;3.97;;
25653;SDS011;13511;48.622;9.230;2023-07-28T11:00:45;3.92;;;3.72;;
25653;SDS011;13511;48.622;9.230;2023-07-28T11:03:12;4.05;;;3.75;;
25653;SDS011;13511;48.622;9.230;2023-07-28T11:05:38;4.95;;;4.55;;
25653;SDS011;13511;48.622;9.230;2023-07-28T11:08:05;4.43;;;4.13;;
25653;SDS011;13511;48.622;9.230;2023-07-28T11:10:32;3.80;;;3.50;;
25653;SDS011;13511;48.622;9.230;2023-07-28T11:13:01;4.30;;;4.00;;
25653;SDS011;13511;48.622;9.230;2023-07-28T11:15:27;4.35;;;3.97;;
25653;SDS011;13511;48.622;9.230;2023-07-28T11:17:53;4.00;;;3.80;;
25653;SDS011;13511;48.622;9.230;2023-07-28T11:20:20;6.43;;;4.40;;
25653;SDS011;13511;48.622;9.230;2023-07-28T11:22:51;4.28;;;4.07;;
25653;SDS011;13511;48.622;9.230;2023-07-28T11:27:44;3.95;;;3.65;;
25653;SDS011;13511;48.622;9.230;2023-07-28T11:30:14;4.30;;;4.00;;
25653;SDS011;13511;48.622;9.230;2023-07-28T11:32:41;4.22;;;3.92;;
25653;SDS011;13511;48.622;9.230;2023-07-28T11:35:08;3.80;;;3.60;;
25653;SDS011;13511;48.622;9.230;2023-07-28T11:37:35;4.78;;;4.05;;
25653;SDS011;13511;48.622;9.230;2023-07-28T11:40:02;4.13;;;3.92;;
25653;SDS011;13511;48.622;9.230;2023-07-28T11:42:32;4.30;;;4.00;;
25653;SDS011;13511;48.622;9.230;2023-07-28T11:44:58;4.10;;;3.90;;
25653;SDS011;13511;48.622;9.230;2023-07-28T11:47:24;4.50;;;4.05;;
25653;SDS011;13511;48.622;9.230;2023-07-28T11:49:50;4.70;;;4.30;;
25653;SDS011;13511;48.622;9.230;2023-07-28T11:52:16;17.85;;;5.90;;
25653;SDS011;13511;48.622;9.230;2023-07-28T11:54:43;4.65;;;4.38;;
25653;SDS011;13511;48.622;9.230;2023-07-28T11:57:10;4.97;;;4.60;;
25653;SDS011;13511;48.622;9.230;2023-07-28T11:59:36;5.20;;;4.70;;
25653;SDS011;13511;48.622;9.230;2023-07-28T12:02:03;5.78;;;5.28;;
25653;SDS011;13511;48.622;9.230;2023-07-28T12:04:35;5.10;;;4.90;;
25653;SDS011;13511;48.622;9.230;2023-07-28T12:12:11;6.75;;;6.18;;
25653;SDS011;13511;48.622;9.230;2023-07-28T12:14:38;5.53;;;5.22;;
25653;SDS011;13511;48.622;9.230;2023-07-28T12:19:54;6.20;;;5.70;;
25653;SDS011;13511;48.622;9.230;2023-07-28T12:22:20;7.28;;;6.07;;
25653;SDS011;13511;48.622;9.230;2023-07-28T12:24:46;5.95;;;5.45;;
25653;SDS011;13511;48.622;9.230;2023-07-28T12:27:13;6.13;;;5.63;;
25653;SDS011;13511;48.622;9.230;2023-07-28T12:29:40;6.00;;;5.60;;
25653;SDS011;13511;48.622;9.230;2023-07-28T12:32:07;6.03;;;5.60;;
25653;SDS011;13511;48.622;9.230;2023-07-28T12:34:33;5.95;;;5.45;;
25653;SDS011;13511;48.622;9.230;2023-07-28T12:36:59;9.18;;;5.57;;
25653;SDS011;13511;48.622;9.230;2023-07-28T12:39:25;6.40;;;5.80;;
25653;SDS011;13511;48.622;9.230;2023-07-28T12:41:51;6.45;;;5.90;;
25653;SDS011;13511;48.622;9.230;2023-07-28T12:44:20;5.75;;;5.28;;
25653;SDS011;13511;48.622;9.230;2023-07-28T12:46:46;5.60;;;5.18;;
25653;SDS011;13511;48.622;9.230;2023-07-28T12:49:12;5.95;;;5.20;;
25653;SDS011;13511;48.622;9.230;2023-07-28T12:51:40;5.70;;;5.30;;
25653;SDS011;13511;48.622;9.230;2023-07-28T12:54:06;5.15;;;4.72;;
25653;SDS011;13511;48.622;9.230;2023-07-28T12:56:32;6.88;;;5.50;;
25653;SDS011;13511;48.622;9.230;2023-07-28T12:58:58;6.60;;;5.25;;
25653;SDS011;13511;48.622;9.230;2023-07-28T13:01:24;6.00;;;5.50;;
25653;SDS011;13511;48.622;9.230;2023-07-28T13:03:50;8.93;;;5.43;;
25653;SDS011;13511;48.622;9.230;2023-07-28T13:06:16;5.57;;;5.18;;
25653;SDS011;13511;48.622;9.230;2023-07-28T13:08:42;5.47;;;4.97;;
25653;SDS011;13511;48.622;9.230;2023-07-28T13:11:08;10.07;;;5.68;;
25653;SDS011;13511;48.622;9.230;2023-07-28T13:13:34;6.03;;;5.63;;
25653;SDS011;13511;48.622;9.230;2023-07-28T13:16:00;6.10;;;5.70;;
25653;SDS011;13511;48.622;9.230;2023-07-28T13:18:26;5.13;;;4.82;;
25653;SDS011;13511;48.622;9.230;2023-07-28T13:20:54;5.55;;;5.03;;
25653;SDS011;13511;48.622;9.230;2023-07-28T13:23:20;5.28;;;4.97;;
25653;SDS011;13511;48.622;9.230;2023-07-28T13:25:46;5.60;;;5.20;;
25653;SDS011;13511;48.622;9.230;2023-07-28T13:28:12;5.78;;;5.40;;
25653;SDS011;13511;48.622;9.230;2023-07-28T13:30:39;5.20;;;4.80;;
25653;SDS011;13511;48.622;9.230;2023-07-28T13:33:05;6.00;;;5.20;;
25653;SDS011;13511;48.622;9.230;2023-07-28T13:35:31;5.38;;;4.97;;
25653;SDS011;13511;48.622;9.230;2023-07-28T13:37:57;5.07;;;4.78;;
25653;SDS011;13511;48.622;9.230;2023-07-28T13:40:23;5.63;;;5.22;;
25653;SDS011;13511;48.622;9.230;2023-07-28T13:42:49;5.88;;;5.47;;
25653;SDS011;13511;48.622;9.230;2023-07-28T13:45:15;5.00;;;4.60;;
25653;SDS011;13511;48.622;9.230;2023-07-28T13:47:42;5.47;;;5.07;;
25653;SDS011;13511;48.622;9.230;2023-07-28T13:50:08;5.95;;;5.50;;
25653;SDS011;13511;48.622;9.230;2023-07-28T13:52:34;5.45;;;5.07;;
25653;SDS011;13511;48.622;9.230;2023-07-28T13:55:00;6.03;;;5.63;;
25653;SDS011;13511;48.622;9.230;2023-07-28T13:57:26;6.45;;;5.80;;
25653;SDS011;13511;48.622;9.230;2023-07-28T13:59:52;6.57;;;5.93;;
25653;SDS011;13511;48.622;9.230;2023-07-28T14:02:18;6.45;;;5.90;;
25653;SDS011;13511;48.622;9.230;2023-07-28T14:04:44;6.32;;;5.82;;
25653;SDS011;13511;48.622;9.230;2023-07-28T14:07:10;6.07;;;5.47;;
25653;SDS011;13511;48.622;9.230;2023-07-28T14:09:36;13.38;;;5.60;;
25653;SDS011;13511;48.622;9.230;2023-07-28T14:12:03;5.60;;;5.20;;
25653;SDS011;13511;48.622;9.230;2023-07-28T14:14:29;5.70;;;5.15;;
25653;SDS011;13511;48.622;9.230;2023-07-28T14:16:55;5.70;;;5.20;;
25653;SDS011;13511;48.622;9.230;2023-07-28T14:19:21;5.53;;;5.10;;
25653;SDS011;13511;48.622;9.230;2023-07-28T14:21:47;5.10;;;4.80;;
25653;SDS011;13511;48.622;9.230;2023-07-28T14:24:13;5.80;;;5.40;;
25653;SDS011;13511;48.622;9.230;2023-07-28T14:26:39;5.43;;;5.10;;
25653;SDS011;13511;48.622;9.230;2023-07-28T14:29:05;5.07;;;4.65;;
25653;SDS011;13511;48.622;9.230;2023-07-28T14:31:31;5.10;;;4.70;;
25653;SDS011;13511;48.622;9.230;2023-07-28T14:33:57;9.02;;;5.40;;
25653;SDS011;13511;48.622;9.230;2023-07-28T14:36:24;5.88;;;5.43;;
25653;SDS011;13511;48.622;9.230;2023-07-28T14:38:50;5.60;;;5.20;;
25653;SDS011;13511;48.622;9.230;2023-07-28T14:41:16;6.45;;;5.85;;
25653;SDS011;13511;48.622;9.230;2023-07-28T14:43:42;6.88;;;6.22;;
25653;SDS011;13511;48.622;9.230;2023-07-28T14:46:08;8.88;;;6.07;;
25653;SDS011;13511;48.622;9.230;2023-07-28T14:48:34;7.13;;;6.43;;
25653;SDS011;13511;48.622;9.230;2023-07-28T14:51:00;5.93;;;5.43;;
25653;SDS011;13511;48.622;9.230;2023-07-28T14:55:59;6.22;;;5.72;;
25653;SDS011;13511;48.622;9.230;2023-07-28T14:58:26;6.10;;;5.60;;
25653;SDS011;13511;48.622;9.230;2023-07-28T15:00:52;5.88;;;5.25;;
25653;SDS011;13511;48.622;9.230;2023-07-28T15:03:18;5.97;;;5.43;;
25653;SDS011;13511;48.622;9.230;2023-07-28T15:05:44;5.70;;;5.22;;
25653;SDS011;13511;48.622;9.230;2023-07-28T15:08:10;6.25;;;5.50;;
25653;SDS011;13511;48.622;9.230;2023-07-28T15:10:36;5.32;;;4.93;;